Terminal Aerodrome Forecast
Issued by NWS

Home | Current Version | Previous Version | Text Only | Print | Product List | Glossary Off
Versions: 1 2 3 4 5 6 7 8 9 10 11 12 13 14 15 16 17 18 19 20 21 22 23 24 25 26 27 28 29 30

000
FTUS43 KGRB 031700
TAFRHI
TAF
KRHI 031726Z 0318/0418 16007KT 3SM -FZDZSN BR OVC022
      TEMPO 0318/0321 1 1/2SM -SN BR SCT008 BKN014
     FM032100 28010G19KT P6SM -FZDZSN SCT012 OVC025
     FM032300 29010G18KT P6SM SCT018 BKN100
     FM040300 29012G20KT P6SM SCT100
     FM041600 29013G23KT P6SM BKN022=

USA.gov is the U.S. government's official web portal to all federal, state and local government web resources and services.